sensor_id;sensor_type;location;lat;lon;timestamp;pressure;altitude;pressure_sealevel;temperature;humidity
68822;BME280;55834;50.870;4.606;2023-04-07T00:00:14;100842.16;;;9.25;58.95
68822;BME280;55834;50.870;4.606;2023-04-07T00:02:40;100854.34;;;9.31;58.17
68822;BME280;55834;50.870;4.606;2023-04-07T00:05:06;100851.59;;;9.38;57.94
68822;BME280;55834;50.870;4.606;2023-04-07T00:07:32;100853.38;;;9.36;58.01
68822;BME280;55834;50.870;4.606;2023-04-07T00:09:57;100856.97;;;9.32;57.69
68822;BME280;55834;50.870;4.606;2023-04-07T00:12:22;100845.66;;;9.25;57.67
68822;BME280;55834;50.870;4.606;2023-04-07T00:14:47;100852.59;;;9.33;58.27
68822;BME280;55834;50.870;4.606;2023-04-07T00:17:13;100844.69;;;9.33;57.95
68822;BME280;55834;50.870;4.606;2023-04-07T00:19:38;100849.03;;;9.34;58.37
68822;BME280;55834;50.870;4.606;2023-04-07T00:22:03;100848.19;;;9.32;57.38
68822;BME280;55834;50.870;4.606;2023-04-07T00:24:29;100842.06;;;9.33;57.71
68822;BME280;55834;50.870;4.606;2023-04-07T00:26:54;100848.09;;;8.93;57.75
68822;BME280;55834;50.870;4.606;2023-04-07T00:29:21;100842.91;;;8.88;58.89
68822;BME280;55834;50.870;4.606;2023-04-07T00:31:46;100839.63;;;8.77;59.57
68822;BME280;55834;50.870;4.606;2023-04-07T00:34:11;100838.44;;;8.93;59.19
68822;BME280;55834;50.870;4.606;2023-04-07T00:36:36;100844.28;;;9.08;58.83
68822;BME280;55834;50.870;4.606;2023-04-07T00:39:02;100844.22;;;9.11;58.95
68822;BME280;55834;50.870;4.606;2023-04-07T00:41:27;100845.31;;;9.00;58.63
68822;BME280;55834;50.870;4.606;2023-04-07T00:43:52;100847.84;;;9.05;59.56
68822;BME280;55834;50.870;4.606;2023-04-07T00:46:21;100842.69;;;9.00;58.16
68822;BME280;55834;50.870;4.606;2023-04-07T00:48:46;100839.06;;;8.61;58.94
68822;BME280;55834;50.870;4.606;2023-04-07T00:51:12;100838.72;;;8.31;61.02
68822;BME280;55834;50.870;4.606;2023-04-07T00:53:37;100850.00;;;7.82;62.26
68822;BME280;55834;50.870;4.606;2023-04-07T00:56:03;100850.22;;;8.26;62.87
68822;BME280;55834;50.870;4.606;2023-04-07T00:58:29;100842.84;;;8.45;61.35
68822;BME280;55834;50.870;4.606;2023-04-07T01:01:12;100846.94;;;8.11;61.40
68822;BME280;55834;50.870;4.606;2023-04-07T01:03:57;100845.25;;;8.58;61.31
68822;BME280;55834;50.870;4.606;2023-04-07T01:06:29;100839.31;;;8.47;61.07
68822;BME280;55834;50.870;4.606;2023-04-07T01:09:04;100839.53;;;8.35;60.43
68822;BME280;55834;50.870;4.606;2023-04-07T01:13:59;100833.41;;;8.33;62.41
68822;BME280;55834;50.870;4.606;2023-04-07T01:16:35;100843.63;;;7.38;62.87
68822;BME280;55834;50.870;4.606;2023-04-07T01:19:13;100841.38;;;7.74;63.41
68822;BME280;55834;50.870;4.606;2023-04-07T01:21:39;100839.31;;;7.93;64.26
68822;BME280;55834;50.870;4.606;2023-04-07T01:26:37;100841.78;;;8.05;62.72
68822;BME280;55834;50.870;4.606;2023-04-07T01:31:38;100832.53;;;8.34;62.16
68822;BME280;55834;50.870;4.606;2023-04-07T01:34:04;100834.16;;;8.41;60.84
68822;BME280;55834;50.870;4.606;2023-04-07T01:36:31;100830.94;;;8.24;59.57
68822;BME280;55834;50.870;4.606;2023-04-07T01:38:58;100843.06;;;8.32;61.01
68822;BME280;55834;50.870;4.606;2023-04-07T01:41:24;100834.59;;;8.17;60.12
68822;BME280;55834;50.870;4.606;2023-04-07T01:43:51;100834.72;;;8.07;60.77
68822;BME280;55834;50.870;4.606;2023-04-07T01:46:17;100834.53;;;7.62;61.46
68822;BME280;55834;50.870;4.606;2023-04-07T01:48:43;100840.00;;;8.04;61.57
68822;BME280;55834;50.870;4.606;2023-04-07T01:51:09;100842.22;;;7.75;61.68
68822;BME280;55834;50.870;4.606;2023-04-07T01:53:37;100838.25;;;8.08;61.14
68822;BME280;55834;50.870;4.606;2023-04-07T01:56:03;100838.13;;;8.14;60.95
68822;BME280;55834;50.870;4.606;2023-04-07T01:58:29;100832.88;;;8.14;59.67
68822;BME280;55834;50.870;4.606;2023-04-07T02:00:55;100844.59;;;7.91;60.41
68822;BME280;55834;50.870;4.606;2023-04-07T02:03:28;100841.88;;;7.96;59.98
68822;BME280;55834;50.870;4.606;2023-04-07T02:05:58;100846.50;;;7.82;60.01
68822;BME280;55834;50.870;4.606;2023-04-07T02:08:27;100851.25;;;6.87;62.35
68822;BME280;55834;50.870;4.606;2023-04-07T02:10:54;100840.75;;;7.57;63.71
68822;BME280;55834;50.870;4.606;2023-04-07T02:13:22;100841.88;;;7.96;62.28
68822;BME280;55834;50.870;4.606;2023-04-07T02:15:49;100842.84;;;7.92;61.32
68822;BME280;55834;50.870;4.606;2023-04-07T02:18:15;100839.97;;;7.49;60.95
68822;BME280;55834;50.870;4.606;2023-04-07T02:20:43;100844.75;;;7.81;61.59
68822;BME280;55834;50.870;4.606;2023-04-07T02:23:09;100845.47;;;7.92;60.56
68822;BME280;55834;50.870;4.606;2023-04-07T02:25:34;100854.19;;;7.94;60.56
68822;BME280;55834;50.870;4.606;2023-04-07T02:28:03;100851.63;;;7.89;60.67
68822;BME280;55834;50.870;4.606;2023-04-07T02:30:28;100846.97;;;8.10;60.02
68822;BME280;55834;50.870;4.606;2023-04-07T02:32:53;100848.66;;;8.14;58.12
68822;BME280;55834;50.870;4.606;2023-04-07T02:35:19;100853.81;;;8.19;58.87
68822;BME280;55834;50.870;4.606;2023-04-07T02:37:45;100848.41;;;8.28;58.27
68822;BME280;55834;50.870;4.606;2023-04-07T02:40:12;100852.78;;;8.29;57.96
68822;BME280;55834;50.870;4.606;2023-04-07T02:42:37;100849.25;;;8.31;57.46
68822;BME280;55834;50.870;4.606;2023-04-07T02:45:04;100850.97;;;8.31;57.27
68822;BME280;55834;50.870;4.606;2023-04-07T02:47:30;100858.00;;;8.32;57.37
68822;BME280;55834;50.870;4.606;2023-04-07T02:49:55;100852.00;;;8.24;57.13
68822;BME280;55834;50.870;4.606;2023-04-07T02:52:20;100855.47;;;8.26;58.19
68822;BME280;55834;50.870;4.606;2023-04-07T02:54:46;100865.03;;;8.31;57.68
68822;BME280;55834;50.870;4.606;2023-04-07T02:57:11;100864.94;;;8.36;57.60
68822;BME280;55834;50.870;4.606;2023-04-07T02:59:38;100861.47;;;8.34;57.57
68822;BME280;55834;50.870;4.606;2023-04-07T03:02:03;100869.38;;;8.34;57.06
68822;BME280;55834;50.870;4.606;2023-04-07T03:04:29;100870.25;;;8.33;57.43
68822;BME280;55834;50.870;4.606;2023-04-07T03:06:55;100871.09;;;8.35;57.43
68822;BME280;55834;50.870;4.606;2023-04-07T03:09:21;100863.16;;;8.38;57.58
68822;BME280;55834;50.870;4.606;2023-04-07T03:11:47;100866.75;;;8.32;57.83
68822;BME280;55834;50.870;4.606;2023-04-07T03:14:12;100868.47;;;8.33;57.98
68822;BME280;55834;50.870;4.606;2023-04-07T03:16:38;100869.44;;;8.29;57.53
68822;BME280;55834;50.870;4.606;2023-04-07T03:19:04;100876.47;;;8.29;58.95
68822;BME280;55834;50.870;4.606;2023-04-07T03:21:30;100869.66;;;8.16;57.68
68822;BME280;55834;50.870;4.606;2023-04-07T03:23:56;100868.91;;;8.07;59.52
68822;BME280;55834;50.870;4.606;2023-04-07T03:26:21;100874.16;;;8.07;59.92
68822;BME280;55834;50.870;4.606;2023-04-07T03:28:47;100881.34;;;7.31;61.11
68822;BME280;55834;50.870;4.606;2023-04-07T03:31:12;100868.25;;;7.28;63.01
68822;BME280;55834;50.870;4.606;2023-04-07T03:33:37;100869.56;;;7.63;63.27
68822;BME280;55834;50.870;4.606;2023-04-07T03:36:03;100870.03;;;7.91;62.33
68822;BME280;55834;50.870;4.606;2023-04-07T03:38:28;100869.97;;;7.94;60.22
68822;BME280;55834;50.870;4.606;2023-04-07T03:40:54;100870.88;;;7.91;60.67
68822;BME280;55834;50.870;4.606;2023-04-07T03:43:19;100865.38;;;8.10;61.13
68822;BME280;55834;50.870;4.606;2023-04-07T03:45:45;100866.13;;;8.18;59.70
68822;BME280;55834;50.870;4.606;2023-04-07T03:48:11;100877.75;;;7.41;61.27
68822;BME280;55834;50.870;4.606;2023-04-07T03:50:37;100875.53;;;7.73;62.15
68822;BME280;55834;50.870;4.606;2023-04-07T03:53:03;100873.50;;;7.91;61.86
68822;BME280;55834;50.870;4.606;2023-04-07T03:55:28;100879.41;;;8.09;61.43
68822;BME280;55834;50.870;4.606;2023-04-07T03:57:54;100875.88;;;8.11;59.71
68822;BME280;55834;50.870;4.606;2023-04-07T04:00:20;100869.66;;;8.17;59.90
68822;BME280;55834;50.870;4.606;2023-04-07T04:02:45;100879.28;;;7.56;60.26
68822;BME280;55834;50.870;4.606;2023-04-07T04:05:10;100878.72;;;7.93;62.12
68822;BME280;55834;50.870;4.606;2023-04-07T04:07:36;100881.13;;;8.10;61.02
68822;BME280;55834;50.870;4.606;2023-04-07T04:10:01;100884.69;;;8.04;59.76
68822;BME280;55834;50.870;4.606;2023-04-07T04:12:26;100875.88;;;8.10;59.67
68822;BME280;55834;50.870;4.606;2023-04-07T04:14:52;100882.78;;;8.17;59.71
68822;BME280;55834;50.870;4.606;2023-04-07T04:17:18;100884.81;;;7.98;58.70
68822;BME280;55834;50.870;4.606;2023-04-07T04:19:43;100885.19;;;7.74;60.14
68822;BME280;55834;50.870;4.606;2023-04-07T04:22:08;100887.56;;;7.89;61.08
68822;BME280;55834;50.870;4.606;2023-04-07T04:24:34;100888.28;;;8.00;60.25
68822;BME280;55834;50.870;4.606;2023-04-07T04:26:59;100892.59;;;8.04;59.53
68822;BME280;55834;50.870;4.606;2023-04-07T04:29:26;100898.41;;;7.67;60.25
68822;BME280;55834;50.870;4.606;2023-04-07T04:31:51;100900.75;;;7.86;60.86
68822;BME280;55834;50.870;4.606;2023-04-07T04:34:16;100890.88;;;8.03;60.66
68822;BME280;55834;50.870;4.606;2023-04-07T04:36:42;100896.88;;;8.14;60.48
68822;BME280;55834;50.870;4.606;2023-04-07T04:39:08;100901.16;;;8.19;59.86
68822;BME280;55834;50.870;4.606;2023-04-07T04:41:33;100900.25;;;8.21;59.08
68822;BME280;55834;50.870;4.606;2023-04-07T04:43:58;100897.88;;;8.03;59.47
68822;BME280;55834;50.870;4.606;2023-04-07T04:46:24;100903.91;;;8.12;59.79
68822;BME280;55834;50.870;4.606;2023-04-07T04:48:49;100901.16;;;8.19;59.52
68822;BME280;55834;50.870;4.606;2023-04-07T04:51:17;100901.16;;;8.19;59.05
68822;BME280;55834;50.870;4.606;2023-04-07T04:53:42;100909.19;;;8.11;59.10
68822;BME280;55834;50.870;4.606;2023-04-07T04:56:08;100903.78;;;8.20;59.41
68822;BME280;55834;50.870;4.606;2023-04-07T04:58:34;100908.13;;;8.23;59.04
68822;BME280;55834;50.870;4.606;2023-04-07T05:01:00;100907.16;;;8.28;59.13
68822;BME280;55834;50.870;4.606;2023-04-07T05:03:27;100900.09;;;8.30;58.52
68822;BME280;55834;50.870;4.606;2023-04-07T05:05:52;100906.28;;;8.28;58.60
68822;BME280;55834;50.870;4.606;2023-04-07T05:08:18;100910.66;;;8.29;58.61
68822;BME280;55834;50.870;4.606;2023-04-07T05:10:43;100912.44;;;8.28;58.12
68822;BME280;55834;50.870;4.606;2023-04-07T05:13:08;100915.28;;;8.14;57.00
68822;BME280;55834;50.870;4.606;2023-04-07T05:15:34;100912.81;;;8.02;58.22
68822;BME280;55834;50.870;4.606;2023-04-07T05:17:59;100914.81;;;7.85;58.53
68822;BME280;55834;50.870;4.606;2023-04-07T05:20:25;100922.66;;;7.88;59.01
68822;BME280;55834;50.870;4.606;2023-04-07T05:22:51;100928.72;;;7.90;58.54
68822;BME280;55834;50.870;4.606;2023-04-07T05:25:16;100932.13;;;8.00;58.52
68822;BME280;55834;50.870;4.606;2023-04-07T05:27:41;100932.94;;;8.03;58.25
68822;BME280;55834;50.870;4.606;2023-04-07T05:30:07;100937.28;;;8.04;57.23
68822;BME280;55834;50.870;4.606;2023-04-07T05:32:32;100934.69;;;8.06;57.86
68822;BME280;55834;50.870;4.606;2023-04-07T05:34:58;100933.78;;;8.08;57.64
68822;BME280;55834;50.870;4.606;2023-04-07T05:37:23;100935.53;;;8.08;57.93
68822;BME280;55834;50.870;4.606;2023-04-07T05:39:48;100933.78;;;8.07;57.66
68822;BME280;55834;50.870;4.606;2023-04-07T05:42:14;100936.47;;;8.02;58.11
68822;BME280;55834;50.870;4.606;2023-04-07T05:44:40;100942.56;;;8.04;57.67
68822;BME280;55834;50.870;4.606;2023-04-07T05:47:05;100934.63;;;8.09;58.08
68822;BME280;55834;50.870;4.606;2023-04-07T05:49:33;100934.59;;;8.12;58.49
68822;BME280;55834;50.870;4.606;2023-04-07T05:51:59;100942.47;;;8.12;58.53
68822;BME280;55834;50.870;4.606;2023-04-07T05:54:24;100949.38;;;8.19;58.61
68822;BME280;55834;50.870;4.606;2023-04-07T05:56:49;100948.41;;;8.26;58.24
68822;BME280;55834;50.870;4.606;2023-04-07T05:59:15;100953.66;;;8.26;57.97
68822;BME280;55834;50.870;4.606;2023-04-07T06:01:41;100954.47;;;8.31;58.25
68822;BME280;55834;50.870;4.606;2023-04-07T06:04:07;100956.13;;;8.37;58.24
68822;BME280;55834;50.870;4.606;2023-04-07T06:06:33;100956.97;;;8.39;58.81
68822;BME280;55834;50.870;4.606;2023-04-07T06:08:58;100963.59;;;8.04;58.40
68822;BME280;55834;50.870;4.606;2023-04-07T06:11:25;100961.56;;;8.26;60.09
68822;BME280;55834;50.870;4.606;2023-04-07T06:13:51;100958.81;;;8.34;58.62
68822;BME280;55834;50.870;4.606;2023-04-07T06:16:16;100957.81;;;8.43;58.74
68822;BME280;55834;50.870;4.606;2023-04-07T06:18:41;100969.16;;;8.45;59.39
68822;BME280;55834;50.870;4.606;2023-04-07T06:21:07;100970.06;;;8.44;58.25
68822;BME280;55834;50.870;4.606;2023-04-07T06:23:32;100980.09;;;8.17;58.78
68822;BME280;55834;50.870;4.606;2023-04-07T06:25:59;100977.97;;;8.42;59.90
68822;BME280;55834;50.870;4.606;2023-04-07T06:28:25;100974.41;;;8.46;59.08
68822;BME280;55834;50.870;4.606;2023-04-07T06:30:52;100972.41;;;8.61;59.30
68822;BME280;55834;50.870;4.606;2023-04-07T06:33:17;100977.59;;;8.65;58.90
68822;BME280;55834;50.870;4.606;2023-04-07T06:35:43;100976.88;;;8.55;58.15
68822;BME280;55834;50.870;4.606;2023-04-07T06:38:09;100982.50;;;8.34;58.61
68822;BME280;55834;50.870;4.606;2023-04-07T06:40:35;100990.44;;;8.28;59.90
68822;BME280;55834;50.870;4.606;2023-04-07T06:43:01;100988.78;;;8.22;59.65
68822;BME280;55834;50.870;4.606;2023-04-07T06:45:28;100990.88;;;7.97;60.81
68822;BME280;55834;50.870;4.606;2023-04-07T06:47:53;100994.94;;;8.21;60.83
68822;BME280;55834;50.870;4.606;2023-04-07T06:50:18;100988.63;;;8.33;60.88
68822;BME280;55834;50.870;4.606;2023-04-07T06:52:46;100989.28;;;8.47;60.15
68822;BME280;55834;50.870;4.606;2023-04-07T06:55:11;101002.84;;;8.21;59.96
68822;BME280;55834;50.870;4.606;2023-04-07T06:57:37;101000.44;;;8.01;59.71
68822;BME280;55834;50.870;4.606;2023-04-07T07:00:02;101003.56;;;8.31;59.90
68822;BME280;55834;50.870;4.606;2023-04-07T07:02:28;101001.94;;;8.22;59.40
68822;BME280;55834;50.870;4.606;2023-04-07T07:04:53;101011.41;;;8.35;60.46
68822;BME280;55834;50.870;4.606;2023-04-07T07:07:19;101014.47;;;8.02;59.53
68822;BME280;55834;50.870;4.606;2023-04-07T07:09:44;101017.59;;;7.62;61.50
68822;BME280;55834;50.870;4.606;2023-04-07T07:12:10;101026.69;;;8.04;61.73
68822;BME280;55834;50.870;4.606;2023-04-07T07:14:35;101024.97;;;8.06;59.30
68822;BME280;55834;50.870;4.606;2023-04-07T07:17:00;101028.19;;;7.54;60.71
68822;BME280;55834;50.870;4.606;2023-04-07T07:19:26;101022.03;;;8.28;62.56
68822;BME280;55834;50.870;4.606;2023-04-07T07:21:51;101022.47;;;8.56;60.12
68822;BME280;55834;50.870;4.606;2023-04-07T07:24:16;101027.84;;;7.85;61.27
68822;BME280;55834;50.870;4.606;2023-04-07T07:26:42;101034.25;;;7.61;61.55
68822;BME280;55834;50.870;4.606;2023-04-07T07:29:07;101026.63;;;8.10;61.89
68822;BME280;55834;50.870;4.606;2023-04-07T07:31:33;101027.06;;;7.77;62.08
68822;BME280;55834;50.870;4.606;2023-04-07T07:33:59;101030.09;;;8.17;61.53
68822;BME280;55834;50.870;4.606;2023-04-07T07:36:24;101035.88;;;7.69;61.06
68822;BME280;55834;50.870;4.606;2023-04-07T07:38:50;101038.31;;;7.88;62.78
68822;BME280;55834;50.870;4.606;2023-04-07T07:41:19;101047.22;;;6.90;65.34
68822;BME280;55834;50.870;4.606;2023-04-07T07:43:45;101047.19;;;6.91;64.53
68822;BME280;55834;50.870;4.606;2023-04-07T07:46:10;101049.91;;;7.70;63.19
68822;BME280;55834;50.870;4.606;2023-04-07T07:48:35;101046.91;;;8.01;62.36
68822;BME280;55834;50.870;4.606;2023-04-07T07:51:01;101051.84;;;8.27;61.42
68822;BME280;55834;50.870;4.606;2023-04-07T07:53:26;101059.31;;;7.03;63.46
68822;BME280;55834;50.870;4.606;2023-04-07T07:55:53;101069.28;;;6.58;64.42
68822;BME280;55834;50.870;4.606;2023-04-07T07:58:20;101068.19;;;6.88;64.75
68822;BME280;55834;50.870;4.606;2023-04-07T08:00:45;101082.69;;;6.00;66.39
68822;BME280;55834;50.870;4.606;2023-04-07T08:03:11;101073.94;;;6.08;65.01
68822;BME280;55834;50.870;4.606;2023-04-07T08:05:36;101069.91;;;6.95;62.69
68822;BME280;55834;50.870;4.606;2023-04-07T08:08:02;101086.75;;;6.67;62.54
68822;BME280;55834;50.870;4.606;2023-04-07T08:10:27;101076.28;;;7.62;62.58
68822;BME280;55834;50.870;4.606;2023-04-07T08:12:53;101080.97;;;8.14;59.39
68822;BME280;55834;50.870;4.606;2023-04-07T08:15:18;101082.72;;;8.14;59.94
68822;BME280;55834;50.870;4.606;2023-04-07T08:17:44;101083.06;;;7.83;59.84
68822;BME280;55834;50.870;4.606;2023-04-07T08:20:11;101088.06;;;7.20;61.99
68822;BME280;55834;50.870;4.606;2023-04-07T08:22:36;101096.38;;;6.66;63.75
68822;BME280;55834;50.870;4.606;2023-04-07T08:25:02;101105.03;;;6.79;62.72
68822;BME280;55834;50.870;4.606;2023-04-07T08:27:27;101103.88;;;7.15;63.20
68822;BME280;55834;50.870;4.606;2023-04-07T08:30:05;101104.38;;;7.53;60.72
68822;BME280;55834;50.870;4.606;2023-04-07T08:32:41;101110.59;;;7.44;61.62
68822;BME280;55834;50.870;4.606;2023-04-07T08:35:07;101114.72;;;6.63;62.82
68822;BME280;55834;50.870;4.606;2023-04-07T08:37:33;101116.44;;;6.69;62.84
68822;BME280;55834;50.870;4.606;2023-04-07T08:39:59;101103.44;;;7.63;60.40
68822;BME280;55834;50.870;4.606;2023-04-07T08:42:28;101106.00;;;7.69;61.17
68822;BME280;55834;50.870;4.606;2023-04-07T08:45:01;101102.78;;;8.23;59.85
68822;BME280;55834;50.870;4.606;2023-04-07T08:47:29;101107.13;;;7.43;60.87
68822;BME280;55834;50.870;4.606;2023-04-07T08:49:56;101105.03;;;7.78;61.51
68822;BME280;55834;50.870;4.606;2023-04-07T08:52:32;101102.59;;;7.59;61.94
68822;BME280;55834;50.870;4.606;2023-04-07T08:54:58;101109.34;;;6.85;62.88
68822;BME280;55834;50.870;4.606;2023-04-07T08:57:29;101105.31;;;7.49;61.88
68822;BME280;55834;50.870;4.606;2023-04-07T08:59:55;101112.78;;;7.88;61.60
68822;BME280;55834;50.870;4.606;2023-04-07T09:02:22;101103.19;;;7.86;59.17
68822;BME280;55834;50.870;4.606;2023-04-07T09:04:47;101100.03;;;8.91;60.00
68822;BME280;55834;50.870;4.606;2023-04-07T09:07:13;101109.94;;;9.31;56.28
68822;BME280;55834;50.870;4.606;2023-04-07T09:09:38;101107.06;;;8.90;57.95
68822;BME280;55834;50.870;4.606;2023-04-07T09:12:04;101103.88;;;8.70;57.20
68822;BME280;55834;50.870;4.606;2023-04-07T09:14:29;101115.97;;;8.83;55.71
68822;BME280;55834;50.870;4.606;2023-04-07T09:16:55;101114.69;;;8.50;56.51
68822;BME280;55834;50.870;4.606;2023-04-07T09:19:21;101107.25;;;8.14;57.97
68822;BME280;55834;50.870;4.606;2023-04-07T09:21:50;101108.16;;;8.77;57.17
68822;BME280;55834;50.870;4.606;2023-04-07T09:24:28;101114.91;;;8.33;58.17
68822;BME280;55834;50.870;4.606;2023-04-07T09:27:17;101117.31;;;9.09;57.28
68822;BME280;55834;50.870;4.606;2023-04-07T09:29:46;101121.63;;;8.55;56.97
68822;BME280;55834;50.870;4.606;2023-04-07T09:32:34;101113.69;;;8.60;57.03
68822;BME280;55834;50.870;4.606;2023-04-07T09:35:01;101115.91;;;9.42;55.57
68822;BME280;55834;50.870;4.606;2023-04-07T09:37:27;101121.72;;;8.48;55.45
68822;BME280;55834;50.870;4.606;2023-04-07T09:39:52;101106.34;;;8.17;58.96
68822;BME280;55834;50.870;4.606;2023-04-07T09:42:19;101112.53;;;8.14;59.45
68822;BME280;55834;50.870;4.606;2023-04-07T09:44:44;101109.50;;;9.02;57.95
68822;BME280;55834;50.870;4.606;2023-04-07T09:47:10;101109.66;;;9.47;55.60
68822;BME280;55834;50.870;4.606;2023-04-07T09:49:50;101103.13;;;9.70;56.33
68822;BME280;55834;50.870;4.606;2023-04-07T09:52:16;101111.38;;;8.37;57.75
68822;BME280;55834;50.870;4.606;2023-04-07T09:54:46;101114.34;;;7.21;59.50
68822;BME280;55834;50.870;4.606;2023-04-07T09:57:12;101101.41;;;7.88;59.57
68822;BME280;55834;50.870;4.606;2023-04-07T09:59:40;101109.69;;;8.30;59.40
68822;BME280;55834;50.870;4.606;2023-04-07T10:02:14;101109.47;;;8.48;59.93
68822;BME280;55834;50.870;4.606;2023-04-07T10:04:44;101114.41;;;8.68;56.58
68822;BME280;55834;50.870;4.606;2023-04-07T10:07:09;101109.66;;;8.95;57.41
68822;BME280;55834;50.870;4.606;2023-04-07T10:09:35;101117.06;;;10.20;55.06
68822;BME280;55834;50.870;4.606;2023-04-07T10:12:01;101107.34;;;9.77;53.45
68822;BME280;55834;50.870;4.606;2023-04-07T10:14:31;101107.16;;;9.88;52.28
68822;BME280;55834;50.870;4.606;2023-04-07T10:16:58;101122.19;;;9.35;52.63
68822;BME280;55834;50.870;4.606;2023-04-07T10:19:24;101108.03;;;9.40;53.59
68822;BME280;55834;50.870;4.606;2023-04-07T10:21:52;101116.69;;;8.31;55.52
68822;BME280;55834;50.870;4.606;2023-04-07T10:26:56;101113.53;;;9.26;53.71
68822;BME280;55834;50.870;4.606;2023-04-07T10:29:23;101109.06;;;9.32;54.38
68822;BME280;55834;50.870;4.606;2023-04-07T10:31:51;101114.94;;;8.93;53.90
68822;BME280;55834;50.870;4.606;2023-04-07T10:34:16;101109.59;;;8.38;55.42
68822;BME280;55834;50.870;4.606;2023-04-07T10:37:07;101112.53;;;9.34;54.23
68822;BME280;55834;50.870;4.606;2023-04-07T10:39:33;101118.50;;;9.93;52.74
68822;BME280;55834;50.870;4.606;2023-04-07T10:42:00;101111.66;;;9.81;52.19
68822;BME280;55834;50.870;4.606;2023-04-07T10:47:04;101120.72;;;9.66;52.50
68822;BME280;55834;50.870;4.606;2023-04-07T10:49:31;101119.84;;;10.12;51.62
68822;BME280;55834;50.870;4.606;2023-04-07T10:52:27;101128.16;;;10.36;50.66
68822;BME280;55834;50.870;4.606;2023-04-07T10:58:21;101130.72;;;8.93;55.33
68822;BME280;55834;50.870;4.606;2023-04-07T11:03:27;101131.38;;;9.08;53.65
68822;BME280;55834;50.870;4.606;2023-04-07T11:06:11;101136.09;;;8.87;53.87
68822;BME280;55834;50.870;4.606;2023-04-07T11:08:41;101130.47;;;9.09;54.70
68822;BME280;55834;50.870;4.606;2023-04-07T11:11:08;101129.66;;;9.05;54.30
68822;BME280;55834;50.870;4.606;2023-04-07T11:13:41;101132.00;;;9.23;54.42
68822;BME280;55834;50.870;4.606;2023-04-07T11:16:08;101127.28;;;9.45;53.16
68822;BME280;55834;50.870;4.606;2023-04-07T11:18:34;101122.25;;;9.80;51.86
68822;BME280;55834;50.870;4.606;2023-04-07T11:21:00;101135.13;;;8.28;55.91
68822;BME280;55834;50.870;4.606;2023-04-07T11:23:43;101131.59;;;8.94;53.82
68822;BME280;55834;50.870;4.606;2023-04-07T11:26:10;101133.63;;;9.32;54.23
68822;BME280;55834;50.870;4.606;2023-04-07T11:28:48;101130.72;;;9.97;52.01
68822;BME280;55834;50.870;4.606;2023-04-07T11:31:27;101142.53;;;8.65;54.73
68822;BME280;55834;50.870;4.606;2023-04-07T11:33:58;101132.19;;;9.67;53.61
68822;BME280;55834;50.870;4.606;2023-04-07T11:36:32;101143.88;;;8.30;55.93
68822;BME280;55834;50.870;4.606;2023-04-07T11:38:58;101136.72;;;9.03;55.17
68822;BME280;55834;50.870;4.606;2023-04-07T11:41:26;101151.25;;;8.68;54.64
68822;BME280;55834;50.870;4.606;2023-04-07T11:44:10;101144.56;;;9.06;54.48
68822;BME280;55834;50.870;4.606;2023-04-07T11:46:51;101142.28;;;9.40;53.00
68822;BME280;55834;50.870;4.606;2023-04-07T11:49:17;101159.75;;;8.90;53.37
68822;BME280;55834;50.870;4.606;2023-04-07T11:51:43;101152.59;;;8.97;54.19
68822;BME280;55834;50.870;4.606;2023-04-07T11:54:09;101146.13;;;9.72;53.44
68822;BME280;55834;50.870;4.606;2023-04-07T11:56:45;101154.25;;;9.61;52.59
68822;BME280;55834;50.870;4.606;2023-04-07T11:59:22;101151.56;;;9.64;53.52
68822;BME280;55834;50.870;4.606;2023-04-07T12:01:49;101154.59;;;9.41;53.06
68822;BME280;55834;50.870;4.606;2023-04-07T12:04:15;101156.47;;;9.84;51.53
68822;BME280;55834;50.870;4.606;2023-04-07T12:06:41;101150.75;;;9.59;52.89
68822;BME280;55834;50.870;4.606;2023-04-07T12:09:24;101152.50;;;10.50;50.30
68822;BME280;55834;50.870;4.606;2023-04-07T12:11:53;101160.50;;;9.54;53.42
68822;BME280;55834;50.870;4.606;2023-04-07T12:14:19;101155.06;;;10.10;51.61
68822;BME280;55834;50.870;4.606;2023-04-07T12:16:45;101163.03;;;8.40;55.63
68822;BME280;55834;50.870;4.606;2023-04-07T12:19:10;101162.50;;;9.41;54.22
68822;BME280;55834;50.870;4.606;2023-04-07T12:21:36;101165.44;;;9.20;53.83
68822;BME280;55834;50.870;4.606;2023-04-07T12:24:10;101164.16;;;8.88;55.07
68822;BME280;55834;50.870;4.606;2023-04-07T12:26:35;101170.78;;;10.16;52.21
68822;BME280;55834;50.870;4.606;2023-04-07T12:29:01;101165.47;;;9.18;52.59
68822;BME280;55834;50.870;4.606;2023-04-07T12:31:30;101178.81;;;9.06;53.75
68822;BME280;55834;50.870;4.606;2023-04-07T12:33:56;101184.34;;;8.20;56.27
68822;BME280;55834;50.870;4.606;2023-04-07T12:36:23;101185.06;;;8.34;56.21
68822;BME280;55834;50.870;4.606;2023-04-07T12:38:48;101181.78;;;8.13;58.12
68822;BME280;55834;50.870;4.606;2023-04-07T12:41:13;101185.34;;;8.80;55.83
68822;BME280;55834;50.870;4.606;2023-04-07T12:43:39;101187.22;;;7.97;58.49
68822;BME280;55834;50.870;4.606;2023-04-07T12:46:05;101187.81;;;8.22;57.61
68822;BME280;55834;50.870;4.606;2023-04-07T12:48:30;101193.63;;;7.68;57.66
68822;BME280;55834;50.870;4.606;2023-04-07T12:50:56;101201.75;;;7.37;58.09
68822;BME280;55834;50.870;4.606;2023-04-07T12:53:21;101199.47;;;6.82;60.58
68822;BME280;55834;50.870;4.606;2023-04-07T12:55:48;101204.75;;;6.84;60.37
68822;BME280;55834;50.870;4.606;2023-04-07T12:58:16;101190.53;;;8.16;57.52
68822;BME280;55834;50.870;4.606;2023-04-07T13:00:43;101185.16;;;8.91;55.54
68822;BME280;55834;50.870;4.606;2023-04-07T13:03:09;101180.44;;;8.53;55.65
68822;BME280;55834;50.870;4.606;2023-04-07T13:05:34;101196.59;;;8.90;54.17
68822;BME280;55834;50.870;4.606;2023-04-07T13:08:02;101191.56;;;7.99;58.08
68822;BME280;55834;50.870;4.606;2023-04-07T13:10:27;101190.69;;;8.74;53.91
68822;BME280;55834;50.870;4.606;2023-04-07T13:12:55;101193.31;;;8.74;53.08
68822;BME280;55834;50.870;4.606;2023-04-07T13:15:21;101187.41;;;7.77;56.20
68822;BME280;55834;50.870;4.606;2023-04-07T13:17:46;101190.78;;;7.88;54.99